Terminal Aerodrome Forecast
Issued by NWS

Home | Current Version | Previous Version | Text Only | Print | Product List | Glossary On
Versions: 1 2 3 4 5 6 7 8 9 10 11 12 13 14 15 16 17
000
FTUS45 KABQ 301734
TAFLVS
TAF
KLVS 301734Z 3018/3118 VRB06KT P6SM VCSH BKN050 BKN080
     FM302000 18012KT P6SM VCTS BKN050CB OVC090
      TEMPO 3021/3101 4SM TSRA OVC025CB
     FM310400 14008KT 5SM BR VCSH SCT015 OVC030
      TEMPO 3110/3114 2SM BR OVC012=

USA.gov is the U.S. government's official web portal to all federal, state and local government web resources and services.